createdAt,value
2023-03-04T00:00:14.440Z,40.20
2023-03-04T00:02:16.073Z,39.70
2023-03-04T00:04:18.315Z,39.60
2023-03-04T00:06:19.975Z,39.70
2023-03-04T00:08:21.607Z,39.60
2023-03-04T00:10:23.267Z,39.60
2023-03-04T00:12:24.955Z,39.60
2023-03-04T00:14:28.796Z,39.60
2023-03-04T00:16:31.808Z,39.60
2023-03-04T00:18:33.530Z,39.70
2023-03-04T00:20:35.174Z,39.60
2023-03-04T00:22:36.769Z,39.60
2023-03-04T00:24:38.493Z,39.60
2023-03-04T00:26:40.152Z,39.60
2023-03-04T00:28:41.857Z,39.50
2023-03-04T00:30:43.532Z,39.50
2023-03-04T00:32:45.274Z,39.50
2023-03-04T00:34:47.000Z,39.40
2023-03-04T00:36:48.856Z,39.40
2023-03-04T00:38:50.497Z,39.40
2023-03-04T00:40:52.211Z,39.30
2023-03-04T00:42:54.025Z,39.30
2023-03-04T00:44:55.668Z,39.30
2023-03-04T00:46:57.274Z,39.30
2023-03-04T00:48:59.050Z,39.20
2023-03-04T00:51:00.746Z,39.30
2023-03-04T00:53:02.444Z,39.20
2023-03-04T00:55:05.219Z,39.20
2023-03-04T00:57:06.945Z,39.20
2023-03-04T00:59:08.606Z,39.20
2023-03-04T01:01:10.346Z,39.20
2023-03-04T01:03:12.054Z,39.20
2023-03-04T01:05:14.590Z,39.10
2023-03-04T01:07:16.262Z,39.70
2023-03-04T01:09:17.903Z,39.10
2023-03-04T01:11:19.568Z,39.00
2023-03-04T01:13:21.251Z,39.10
2023-03-04T01:15:23.208Z,39.00
2023-03-04T01:17:24.992Z,39.10
2023-03-04T01:19:26.788Z,39.00
2023-03-04T01:21:28.418Z,39.00
2023-03-04T01:23:30.135Z,39.00
2023-03-04T01:25:31.939Z,38.90
2023-03-04T01:27:33.621Z,39.00
2023-03-04T01:29:35.340Z,38.90
2023-03-04T01:31:37.095Z,39.00
2023-03-04T01:33:38.783Z,38.90
2023-03-04T01:35:40.453Z,38.90
2023-03-04T01:37:42.143Z,39.00
2023-03-04T01:39:43.758Z,38.90
2023-03-04T01:41:45.615Z,39.00
2023-03-04T01:43:47.404Z,39.00
2023-03-04T01:45:50.658Z,39.00
2023-03-04T01:47:52.646Z,39.10
2023-03-04T01:49:57.008Z,39.00
2023-03-04T01:51:58.629Z,39.00
2023-03-04T01:54:00.323Z,39.00
2023-03-04T01:56:11.818Z,39.10
2023-03-04T01:58:13.572Z,39.00
2023-03-04T02:00:44.588Z,39.10
2023-03-04T02:02:48.177Z,39.10
2023-03-04T02:04:49.833Z,39.00
2023-03-04T02:06:52.388Z,39.00
2023-03-04T02:08:54.138Z,39.00
2023-03-04T02:10:56.128Z,39.10
2023-03-04T02:12:59.553Z,39.00
2023-03-04T02:15:01.447Z,39.00
2023-03-04T02:17:03.159Z,39.00
2023-03-04T02:19:19.095Z,39.00
2023-03-04T02:21:29.379Z,39.00
2023-03-04T02:23:40.812Z,39.60
2023-03-04T02:26:04.248Z,39.00
2023-03-04T02:28:05.941Z,38.90
2023-03-04T02:30:08.312Z,38.90
2023-03-04T02:32:12.982Z,38.90
2023-03-04T02:34:24.113Z,38.90
2023-03-04T02:36:25.855Z,38.90
2023-03-04T02:38:27.602Z,38.90
2023-03-04T02:40:33.289Z,38.90
2023-03-04T02:42:34.968Z,38.90
2023-03-04T02:44:39.541Z,38.90
2023-03-04T02:46:41.218Z,38.90
2023-03-04T02:48:42.893Z,38.80
2023-03-04T02:50:55.598Z,38.80
2023-03-04T02:52:57.286Z,38.80
2023-03-04T02:54:58.968Z,38.80
2023-03-04T02:57:03.964Z,38.80
2023-03-04T02:59:05.613Z,38.80
2023-03-04T03:01:07.278Z,38.80
2023-03-04T03:03:09.328Z,39.40
2023-03-04T03:05:12.750Z,38.70
2023-03-04T03:07:14.343Z,38.70
2023-03-04T03:09:16.332Z,38.70
2023-03-04T03:11:17.950Z,38.70
2023-03-04T03:13:19.620Z,38.70
2023-03-04T03:15:21.329Z,38.60
2023-03-04T03:17:22.990Z,38.60
2023-03-04T03:19:24.637Z,38.60
2023-03-04T03:21:26.531Z,38.60
2023-03-04T03:23:28.113Z,38.60
2023-03-04T03:25:29.732Z,38.60
2023-03-04T03:27:31.355Z,38.60
2023-03-04T03:29:33.002Z,38.60
2023-03-04T03:31:34.691Z,38.60
2023-03-04T03:33:36.493Z,38.60
2023-03-04T03:35:38.197Z,38.60
2023-03-04T03:37:39.922Z,38.60
2023-03-04T03:39:41.786Z,38.60
2023-03-04T03:41:43.591Z,38.60
2023-03-04T03:43:45.258Z,38.50
2023-03-04T03:45:47.014Z,38.50
2023-03-04T03:47:48.669Z,38.50
2023-03-04T03:49:50.279Z,38.50
2023-03-04T03:51:52.096Z,38.40
2023-03-04T03:53:53.781Z,38.40
2023-03-04T03:55:55.406Z,38.40
2023-03-04T03:57:57.093Z,38.40
2023-03-04T03:59:58.742Z,38.40
2023-03-04T04:02:00.569Z,38.40
2023-03-04T04:04:02.294Z,38.40
2023-03-04T04:06:04.134Z,38.40
2023-03-04T04:08:05.844Z,38.40
2023-03-04T04:10:08.451Z,38.40
2023-03-04T04:12:13.465Z,38.30
2023-03-04T04:14:15.330Z,38.20
2023-03-04T04:16:17.139Z,38.30
2023-03-04T04:18:19.213Z,38.30
2023-03-04T04:20:20.947Z,38.20
2023-03-04T04:22:22.556Z,38.20
2023-03-04T04:24:24.286Z,38.20
2023-03-04T04:26:25.935Z,38.20
2023-03-04T04:28:27.610Z,38.20
2023-03-04T04:30:29.412Z,38.20
2023-03-04T04:32:31.086Z,38.20
2023-03-04T04:34:33.069Z,38.20
2023-03-04T04:36:34.767Z,38.20
2023-03-04T04:38:37.666Z,38.20
2023-03-04T04:40:39.330Z,38.10
2023-03-04T04:42:40.985Z,38.20
2023-03-04T04:44:42.606Z,38.10
2023-03-04T04:46:44.339Z,38.00
2023-03-04T04:48:46.169Z,38.10
2023-03-04T04:50:53.304Z,38.00
2023-03-04T04:52:54.974Z,38.00
2023-03-04T04:54:57.032Z,38.00
2023-03-04T04:56:58.683Z,38.00
2023-03-04T04:59:04.310Z,38.00
2023-03-04T05:01:06.357Z,38.00
2023-03-04T05:03:08.124Z,38.00
2023-03-04T05:05:10.261Z,37.90
2023-03-04T05:07:11.908Z,38.00
2023-03-04T05:09:13.800Z,37.90
2023-03-04T05:11:16.012Z,37.90
2023-03-04T05:13:19.384Z,37.80
2023-03-04T05:15:20.995Z,37.70
2023-03-04T05:17:22.743Z,37.60
2023-03-04T05:19:24.358Z,37.60
2023-03-04T05:21:26.083Z,37.50
2023-03-04T05:23:30.289Z,37.40
2023-03-04T05:25:31.927Z,37.40
2023-03-04T05:27:33.936Z,37.40
2023-03-04T05:29:35.597Z,37.20
2023-03-04T05:31:37.261Z,37.20
2023-03-04T05:33:39.632Z,37.20
2023-03-04T05:35:43.019Z,37.20
2023-03-04T05:37:45.043Z,37.20
2023-03-04T05:39:46.683Z,37.20
2023-03-04T05:41:48.344Z,37.20
2023-03-04T05:43:50.544Z,38.00
2023-03-04T05:45:52.272Z,37.50
2023-03-04T05:47:54.212Z,37.50
2023-03-04T05:49:57.932Z,37.90
2023-03-04T05:51:59.581Z,38.80
2023-03-04T05:54:01.210Z,38.10
2023-03-04T05:56:15.437Z,38.00
2023-03-04T05:58:17.624Z,37.90
2023-03-04T06:00:19.425Z,38.20
2023-03-04T06:02:21.095Z,38.00
2023-03-04T06:04:22.741Z,37.90
2023-03-04T06:06:24.397Z,37.80
2023-03-04T06:08:27.154Z,37.70
2023-03-04T06:10:28.886Z,37.50
2023-03-04T06:12:30.530Z,37.40
2023-03-04T06:14:32.309Z,37.50
2023-03-04T06:16:33.901Z,37.40
2023-03-04T06:18:35.642Z,37.40
2023-03-04T06:20:37.687Z,37.40
2023-03-04T06:22:39.567Z,37.30
2023-03-04T06:24:41.174Z,37.30
2023-03-04T06:26:42.824Z,36.70
2023-03-04T06:28:44.982Z,37.30
2023-03-04T06:30:46.602Z,37.40
2023-03-04T06:32:48.566Z,37.20
2023-03-04T06:34:50.169Z,37.20
2023-03-04T06:36:51.961Z,37.30
2023-03-04T06:38:53.618Z,37.50
2023-03-04T06:40:57.315Z,37.10
2023-03-04T06:42:59.267Z,37.60
2023-03-04T06:45:01.434Z,37.90
2023-03-04T06:47:03.148Z,38.00
2023-03-04T06:49:04.901Z,38.00
2023-03-04T06:51:11.235Z,38.00
2023-03-04T06:53:12.912Z,34.00
2023-03-04T06:55:14.735Z,36.30
2023-03-04T06:57:16.642Z,37.30
2023-03-04T06:59:18.311Z,37.80
2023-03-04T07:01:22.453Z,38.20
2023-03-04T07:03:24.062Z,38.00
2023-03-04T07:05:25.884Z,37.90
2023-03-04T07:07:27.604Z,38.00
2023-03-04T07:09:29.412Z,38.00
2023-03-04T07:11:31.067Z,38.00
2023-03-04T07:13:34.357Z,37.90
2023-03-04T07:15:37.113Z,37.90
2023-03-04T07:17:38.802Z,37.90
2023-03-04T07:19:41.817Z,37.90
2023-03-04T07:21:43.470Z,38.00
2023-03-04T07:23:45.789Z,38.60
2023-03-04T07:25:49.746Z,38.00
2023-03-04T07:27:51.410Z,38.20
2023-03-04T07:29:53.056Z,38.50
2023-03-04T07:31:55.567Z,38.20
2023-03-04T07:34:06.006Z,38.20
2023-03-04T07:36:07.821Z,38.60
2023-03-04T07:38:09.850Z,38.20
2023-03-04T07:40:12.029Z,38.10
2023-03-04T07:42:13.682Z,38.10
2023-03-04T07:44:15.317Z,37.90
2023-03-04T07:46:18.186Z,38.10
2023-03-04T07:48:19.938Z,38.10
2023-03-04T07:50:22.439Z,38.40
2023-03-04T07:52:24.101Z,35.90
2023-03-04T07:54:25.769Z,37.30
2023-03-04T07:56:33.340Z,38.40
2023-03-04T07:58:35.113Z,38.70
2023-03-04T08:00:36.754Z,38.80
2023-03-04T08:02:38.593Z,38.80
2023-03-04T08:04:40.236Z,38.80
2023-03-04T08:06:42.264Z,38.80
2023-03-04T08:08:44.054Z,39.00
2023-03-04T08:10:45.812Z,39.00
2023-03-04T08:12:47.405Z,39.00
2023-03-04T08:14:49.048Z,39.10
2023-03-04T08:16:50.773Z,39.10
2023-03-04T08:18:55.678Z,39.10
2023-03-04T08:20:57.415Z,39.20
2023-03-04T08:22:59.006Z,39.10
2023-03-04T08:25:00.661Z,39.20
2023-03-04T08:27:02.510Z,39.20
2023-03-04T08:29:05.691Z,39.10
2023-03-04T08:31:07.670Z,39.20
2023-03-04T08:33:10.476Z,39.20
2023-03-04T08:35:12.180Z,39.20
2023-03-04T08:37:13.830Z,39.20
2023-03-04T08:39:17.871Z,39.10
2023-03-04T08:41:20.325Z,39.20
2023-03-04T08:43:22.729Z,39.10
2023-03-04T08:45:24.477Z,39.20
2023-03-04T08:47:26.097Z,39.10
2023-03-04T08:49:27.761Z,39.10
2023-03-04T08:51:29.396Z,39.20
2023-03-04T08:53:31.040Z,39.20
2023-03-04T08:55:32.710Z,39.10
2023-03-04T08:57:34.380Z,39.20
2023-03-04T08:59:38.167Z,39.20
2023-03-04T09:01:40.173Z,39.20
2023-03-04T09:03:42.604Z,39.20
2023-03-04T09:05:45.527Z,39.20
2023-03-04T09:07:47.242Z,39.20
2023-03-04T09:09:48.829Z,39.80
2023-03-04T09:11:50.453Z,39.80
2023-03-04T09:13:52.201Z,39.10
2023-03-04T09:15:54.276Z,39.10
2023-03-04T09:17:56.016Z,39.00
2023-03-04T09:19:57.680Z,39.10
2023-03-04T09:21:59.474Z,39.10
2023-03-04T09:24:01.079Z,39.20
2023-03-04T09:26:12.884Z,39.20
2023-03-04T09:28:15.608Z,39.20
2023-03-04T09:30:17.506Z,38.20
2023-03-04T09:32:19.421Z,38.40
2023-03-04T09:34:21.156Z,38.40
2023-03-04T09:36:23.374Z,38.80
2023-03-04T09:38:25.158Z,38.70
2023-03-04T09:40:32.267Z,38.80
2023-03-04T09:42:42.809Z,39.00
2023-03-04T09:44:46.775Z,39.10
2023-03-04T09:46:49.725Z,39.30
2023-03-04T09:48:54.657Z,39.40
2023-03-04T09:51:31.703Z,39.10
2023-03-04T09:54:03.714Z,39.30
2023-03-04T09:56:06.434Z,39.40
2023-03-04T09:58:26.838Z,34.20
2023-03-04T10:00:54.718Z,34.10
2023-03-04T10:03:16.485Z,31.50
2023-03-04T10:05:21.576Z,31.60
2023-03-04T10:07:29.598Z,30.00
2023-03-04T10:10:05.136Z,30.00
2023-03-04T10:12:15.665Z,31.90
2023-03-04T10:14:23.239Z,32.50
2023-03-04T10:16:31.399Z,33.40
2023-03-04T10:18:41.196Z,34.20
2023-03-04T10:20:58.178Z,34.80
2023-03-04T10:23:18.378Z,35.10
2023-03-04T10:25:29.282Z,35.60
2023-03-04T10:27:31.570Z,35.70
2023-03-04T10:29:33.907Z,35.70
2023-03-04T10:31:37.396Z,35.90
2023-03-04T10:33:40.323Z,36.20
2023-03-04T10:35:46.392Z,36.20
2023-03-04T10:37:51.058Z,36.30
2023-03-04T10:39:52.838Z,36.50
2023-03-04T10:42:00.973Z,35.80
2023-03-04T10:44:08.856Z,35.70
2023-03-04T10:46:12.368Z,36.10
2023-03-04T10:48:23.054Z,36.20
2023-03-04T10:50:27.855Z,36.20
2023-03-04T10:52:38.391Z,36.20
2023-03-04T10:55:02.467Z,36.40
2023-03-04T10:57:33.314Z,36.30
2023-03-04T10:59:41.206Z,36.10
2023-03-04T11:01:42.870Z,36.70
2023-03-04T11:03:49.669Z,36.60
2023-03-04T11:05:53.609Z,36.60
2023-03-04T11:07:58.879Z,36.50
2023-03-04T11:10:30.007Z,36.70
2023-03-04T11:12:35.694Z,36.60
2023-03-04T11:14:43.221Z,36.60
2023-03-04T11:16:53.739Z,36.80
2023-03-04T11:19:05.389Z,36.80
2023-03-04T11:21:13.654Z,36.90
2023-03-04T11:23:20.289Z,37.00
2023-03-04T11:25:30.875Z,37.20
2023-03-04T11:27:42.874Z,37.40
2023-03-04T11:29:57.664Z,37.40
2023-03-04T11:32:27.582Z,37.30
2023-03-04T11:34:41.047Z,37.60
2023-03-04T11:36:59.547Z,37.60
2023-03-04T11:39:04.813Z,38.10
2023-03-04T11:41:14.164Z,37.80
2023-03-04T11:43:22.288Z,38.80
2023-03-04T11:45:52.227Z,38.10
2023-03-04T11:47:56.918Z,38.20
2023-03-04T11:50:10.229Z,38.30
2023-03-04T11:52:27.090Z,38.30
2023-03-04T11:54:54.909Z,39.10
2023-03-04T11:57:02.854Z,38.30
2023-03-04T11:59:53.948Z,39.00
2023-03-04T12:02:10.710Z,38.30
2023-03-04T12:04:23.583Z,38.40
2023-03-04T12:06:43.235Z,38.40
2023-03-04T12:09:02.799Z,38.30
2023-03-04T12:11:10.646Z,38.50
2023-03-04T12:13:36.259Z,38.30
2023-03-04T12:16:03.514Z,39.00
2023-03-04T12:18:21.673Z,38.30
2023-03-04T12:20:44.363Z,38.30
2023-03-04T12:23:13.176Z,39.00
2023-03-04T12:25:54.574Z,38.20
2023-03-04T12:28:20.501Z,38.80
2023-03-04T12:30:51.328Z,38.80
2023-03-04T12:33:46.943Z,38.70
2023-03-04T12:36:00.839Z,38.60
2023-03-04T12:38:17.184Z,38.60
2023-03-04T12:40:41.578Z,38.60
2023-03-04T12:43:13.817Z,38.50
2023-03-04T12:45:18.390Z,38.40
2023-03-04T12:47:23.093Z,38.40
2023-03-04T12:50:03.957Z,38.50
2023-03-04T12:52:30.917Z,38.60
2023-03-04T12:54:34.632Z,38.80
2023-03-04T12:56:44.578Z,38.80
2023-03-04T12:58:46.356Z,38.90
2023-03-04T13:01:00.141Z,38.80
2023-03-04T13:03:17.627Z,38.70
2023-03-04T13:05:37.207Z,38.60
2023-03-04T13:07:41.714Z,38.60
2023-03-04T13:09:57.332Z,39.30
2023-03-04T13:12:16.894Z,38.50
2023-03-04T13:14:21.305Z,35.90
2023-03-04T13:16:38.990Z,37.40
2023-03-04T13:18:40.664Z,37.70
2023-03-04T13:20:43.050Z,37.90
2023-03-04T13:23:15.336Z,38.00
2023-03-04T13:25:35.569Z,38.00
2023-03-04T13:28:05.605Z,38.10
2023-03-04T13:30:33.384Z,38.40
2023-03-04T13:32:38.398Z,38.40
2023-03-04T13:34:47.220Z,38.50
2023-03-04T13:36:54.914Z,38.40
2023-03-04T13:39:14.978Z,38.40
2023-03-04T13:41:28.212Z,38.40
2023-03-04T13:43:40.483Z,38.40
2023-03-04T13:45:42.110Z,38.30
2023-03-04T13:47:46.576Z,38.30
2023-03-04T13:49:48.438Z,38.30
2023-03-04T13:51:50.875Z,38.20
2023-03-04T13:53:55.545Z,38.20
2023-03-04T13:56:12.018Z,38.90
2023-03-04T13:58:20.311Z,38.20
2023-03-04T14:00:22.114Z,38.30
2023-03-04T14:02:26.094Z,38.20
2023-03-04T14:04:37.163Z,38.20
2023-03-04T14:06:42.356Z,38.20
2023-03-04T14:08:45.337Z,38.30
2023-03-04T14:10:55.382Z,38.30
2023-03-04T14:12:59.316Z,38.10
2023-03-04T14:15:25.052Z,37.00
2023-03-04T14:17:33.292Z,34.60
2023-03-04T14:19:46.010Z,37.40
2023-03-04T14:21:48.099Z,37.40
2023-03-04T14:24:05.652Z,37.30
2023-03-04T14:26:13.035Z,37.30
2023-03-04T14:28:17.540Z,37.20
2023-03-04T14:30:31.821Z,37.20
2023-03-04T14:32:43.020Z,37.20
2023-03-04T14:34:50.591Z,37.20
2023-03-04T14:36:53.080Z,37.10
2023-03-04T14:38:58.885Z,37.00
2023-03-04T14:41:20.828Z,37.00
2023-03-04T14:43:23.778Z,37.00
2023-03-04T14:45:26.313Z,36.90
2023-03-04T14:47:38.010Z,36.80
2023-03-04T14:49:40.291Z,36.70
2023-03-04T14:51:54.047Z,36.70
2023-03-04T14:53:56.921Z,36.70
2023-03-04T14:55:58.571Z,36.50
2023-03-04T14:58:21.471Z,36.40
2023-03-04T15:00:28.093Z,36.50
2023-03-04T15:02:38.325Z,36.50
2023-03-04T15:04:40.923Z,36.60
2023-03-04T15:06:53.464Z,36.60
2023-03-04T15:09:05.240Z,36.80
2023-03-04T15:11:13.789Z,36.80
2023-03-04T15:13:15.438Z,36.80
2023-03-04T15:15:43.218Z,36.90
2023-03-04T15:17:45.228Z,37.00
2023-03-04T15:19:58.464Z,36.80
2023-03-04T15:22:05.413Z,36.80
2023-03-04T15:24:09.197Z,36.80
2023-03-04T15:26:11.881Z,36.60
2023-03-04T15:28:18.979Z,36.60
2023-03-04T15:30:21.430Z,36.50
2023-03-04T15:32:23.938Z,36.50
2023-03-04T15:34:25.662Z,36.60
2023-03-04T15:36:27.330Z,36.50
2023-03-04T15:38:29.754Z,36.50
2023-03-04T15:40:39.550Z,35.40
2023-03-04T15:42:41.229Z,36.40
2023-03-04T15:44:43.026Z,36.50
2023-03-04T15:46:44.711Z,36.40
2023-03-04T15:48:46.934Z,36.50
2023-03-04T15:50:50.597Z,36.50
2023-03-04T15:52:53.767Z,36.70
2023-03-04T15:54:55.398Z,36.70
2023-03-04T15:56:58.307Z,36.60
2023-03-04T15:59:17.003Z,36.50
2023-03-04T16:01:18.715Z,36.30
2023-03-04T16:03:22.069Z,33.70
2023-03-04T16:05:24.000Z,35.40
2023-03-04T16:07:29.647Z,35.90
2023-03-04T16:09:31.427Z,36.10
2023-03-04T16:11:39.081Z,36.20
2023-03-04T16:13:40.753Z,36.20
2023-03-04T16:15:43.212Z,36.30
2023-03-04T16:17:46.129Z,36.20
2023-03-04T16:19:47.874Z,36.50
2023-03-04T16:21:49.494Z,36.30
2023-03-04T16:23:52.365Z,36.90
2023-03-04T16:25:56.316Z,36.30
2023-03-04T16:28:02.901Z,36.30
2023-03-04T16:30:05.852Z,36.30
2023-03-04T16:32:08.281Z,36.50
2023-03-04T16:34:09.925Z,36.70
2023-03-04T16:36:23.490Z,36.80
2023-03-04T16:38:28.493Z,36.80
2023-03-04T16:40:31.265Z,37.00
2023-03-04T16:42:32.961Z,36.80
2023-03-04T16:44:34.573Z,36.70
2023-03-04T16:46:36.301Z,36.90
2023-03-04T16:48:38.272Z,36.80
2023-03-04T16:50:40.915Z,36.70
2023-03-04T16:52:45.642Z,36.70
2023-03-04T16:54:47.363Z,36.70
2023-03-04T16:56:49.009Z,36.60
2023-03-04T16:58:51.493Z,36.50
2023-03-04T17:00:53.181Z,36.50
2023-03-04T17:02:59.643Z,36.40
2023-03-04T17:05:01.385Z,36.40
2023-03-04T17:07:02.994Z,36.40
2023-03-04T17:09:06.369Z,36.30
2023-03-04T17:11:10.822Z,36.30
2023-03-04T17:13:12.532Z,36.20
2023-03-04T17:15:14.791Z,36.20
2023-03-04T17:17:18.474Z,36.10
2023-03-04T17:19:20.217Z,36.20
2023-03-04T17:21:25.111Z,36.10
2023-03-04T17:23:26.721Z,36.00
2023-03-04T17:25:28.384Z,36.00
2023-03-04T17:27:30.634Z,35.90
2023-03-04T17:29:32.287Z,35.90
2023-03-04T17:31:35.328Z,35.80
2023-03-04T17:33:37.001Z,35.80
2023-03-04T17:35:39.780Z,35.80
2023-03-04T17:37:41.590Z,35.80
2023-03-04T17:39:43.500Z,35.80
2023-03-04T17:41:45.243Z,35.70
2023-03-04T17:43:49.648Z,35.70
2023-03-04T17:45:51.279Z,35.60
2023-03-04T17:47:52.936Z,35.70
2023-03-04T17:49:54.774Z,35.50
2023-03-04T17:51:56.386Z,35.50
2023-03-04T17:53:58.192Z,35.50
2023-03-04T17:56:01.995Z,35.50
2023-03-04T17:58:03.625Z,35.40
2023-03-04T18:00:06.444Z,35.50
2023-03-04T18:02:11.277Z,35.50
2023-03-04T18:04:14.090Z,35.40
2023-03-04T18:06:16.992Z,35.40
2023-03-04T18:08:18.687Z,35.40
2023-03-04T18:10:20.323Z,35.30
2023-03-04T18:12:21.936Z,35.30
2023-03-04T18:14:23.580Z,35.30
2023-03-04T18:16:27.047Z,35.20
2023-03-04T18:18:28.728Z,35.20
2023-03-04T18:20:30.567Z,35.20
2023-03-04T18:22:32.271Z,35.20
2023-03-04T18:24:33.962Z,35.10
2023-03-04T18:26:35.872Z,35.20
2023-03-04T18:28:37.670Z,35.20
2023-03-04T18:30:39.359Z,35.20
2023-03-04T18:32:51.403Z,35.10
2023-03-04T18:34:53.675Z,35.10
2023-03-04T18:36:55.258Z,35.10
2023-03-04T18:38:59.280Z,35.00
2023-03-04T18:41:05.941Z,35.00
2023-03-04T18:43:07.623Z,35.00
2023-03-04T18:45:10.742Z,35.00
2023-03-04T18:47:13.545Z,34.90
2023-03-04T18:49:15.440Z,34.90
2023-03-04T18:51:17.163Z,34.80
2023-03-04T18:53:18.836Z,34.80
2023-03-04T18:55:21.526Z,34.80
2023-03-04T18:57:23.217Z,34.80
2023-03-04T18:59:31.439Z,34.70
2023-03-04T19:01:33.364Z,34.80
2023-03-04T19:03:37.590Z,34.70
2023-03-04T19:05:40.437Z,34.70
2023-03-04T19:07:42.069Z,34.70
2023-03-04T19:09:43.843Z,34.70
2023-03-04T19:11:45.491Z,34.60
2023-03-04T19:13:47.522Z,34.60
2023-03-04T19:15:53.745Z,34.60
2023-03-04T19:17:55.456Z,34.60
2023-03-04T19:19:57.052Z,34.50
2023-03-04T19:21:59.122Z,34.50
2023-03-04T19:24:00.754Z,34.40
2023-03-04T19:26:02.881Z,34.40
2023-03-04T19:28:04.808Z,34.40
2023-03-04T19:30:07.303Z,34.40
2023-03-04T19:32:08.940Z,34.40
2023-03-04T19:34:10.704Z,34.40
2023-03-04T19:36:12.426Z,34.30
2023-03-04T19:38:14.182Z,34.30
2023-03-04T19:40:16.101Z,34.30
2023-03-04T19:42:18.096Z,34.30
2023-03-04T19:44:19.861Z,34.20
2023-03-04T19:46:21.601Z,34.20
2023-03-04T19:48:24.142Z,34.20
2023-03-04T19:50:26.766Z,34.20
2023-03-04T19:52:28.392Z,34.20
2023-03-04T19:54:30.351Z,34.20
2023-03-04T19:56:32.003Z,34.90
2023-03-04T19:58:33.705Z,34.10
2023-03-04T20:00:36.032Z,34.10
2023-03-04T20:02:38.028Z,34.00
2023-03-04T20:04:39.767Z,34.10
2023-03-04T20:06:44.320Z,34.10
2023-03-04T20:08:45.955Z,34.00
2023-03-04T20:10:47.613Z,34.00
2023-03-04T20:12:49.292Z,34.00
2023-03-04T20:14:53.898Z,34.00
2023-03-04T20:17:00.530Z,34.00
2023-03-04T20:19:02.345Z,34.00
2023-03-04T20:21:04.391Z,33.90
2023-03-04T20:23:06.334Z,34.00
2023-03-04T20:25:08.378Z,33.90
2023-03-04T20:27:14.582Z,33.90
2023-03-04T20:29:16.333Z,33.90
2023-03-04T20:31:25.571Z,33.90
2023-03-04T20:33:27.397Z,34.50
2023-03-04T20:35:29.007Z,33.90
2023-03-04T20:37:30.641Z,33.80
2023-03-04T20:39:32.305Z,33.80
2023-03-04T20:41:34.720Z,33.80
2023-03-04T20:43:36.844Z,33.80
2023-03-04T20:45:38.461Z,33.80
2023-03-04T20:47:41.261Z,33.80
2023-03-04T20:49:43.046Z,33.70
2023-03-04T20:51:44.682Z,33.70
2023-03-04T20:53:46.452Z,33.80
2023-03-04T20:55:48.119Z,33.70
2023-03-04T20:57:49.798Z,33.80
2023-03-04T20:59:51.540Z,33.60
2023-03-04T21:01:54.072Z,33.60
2023-03-04T21:03:55.885Z,33.60
2023-03-04T21:06:09.721Z,33.60
2023-03-04T21:08:11.386Z,33.60
2023-03-04T21:10:13.076Z,34.20
2023-03-04T21:12:14.767Z,33.60
2023-03-04T21:14:22.050Z,33.60
2023-03-04T21:16:30.017Z,33.60
2023-03-04T21:18:31.716Z,33.50
2023-03-04T21:20:33.382Z,33.50
2023-03-04T21:22:35.007Z,33.50
2023-03-04T21:24:39.157Z,33.50
2023-03-04T21:26:43.082Z,33.50
2023-03-04T21:28:45.826Z,33.50
2023-03-04T21:30:47.535Z,33.50
2023-03-04T21:32:49.209Z,34.10
2023-03-04T21:34:52.167Z,33.40
2023-03-04T21:36:54.071Z,33.50
2023-03-04T21:38:55.792Z,33.40
2023-03-04T21:40:57.462Z,33.40
2023-03-04T21:42:59.073Z,33.30
2023-03-04T21:45:00.749Z,33.30
2023-03-04T21:47:02.731Z,33.30
2023-03-04T21:49:05.582Z,33.30
2023-03-04T21:51:08.881Z,33.30
2023-03-04T21:53:10.481Z,33.30
2023-03-04T21:55:12.662Z,33.30
2023-03-04T21:57:14.478Z,33.30
2023-03-04T21:59:17.436Z,33.30
2023-03-04T22:01:21.358Z,33.30
2023-03-04T22:03:23.742Z,33.40
2023-03-04T22:05:25.420Z,33.40
2023-03-04T22:07:27.258Z,33.50
2023-03-04T22:09:28.989Z,33.50
2023-03-04T22:11:30.949Z,33.50
2023-03-04T22:13:33.424Z,33.50
2023-03-04T22:15:40.322Z,33.60
2023-03-04T22:17:45.428Z,33.60
2023-03-04T22:19:47.134Z,33.70
2023-03-04T22:21:48.740Z,33.70
2023-03-04T22:23:50.378Z,33.70
2023-03-04T22:25:52.015Z,33.70
2023-03-04T22:27:53.792Z,33.70
2023-03-04T22:29:56.307Z,33.80
2023-03-04T22:31:58.002Z,33.80
2023-03-04T22:34:01.950Z,33.80
2023-03-04T22:36:05.689Z,33.80
2023-03-04T22:38:07.479Z,33.80
2023-03-04T22:40:11.511Z,33.90
2023-03-04T22:42:13.141Z,33.90
2023-03-04T22:44:15.044Z,33.90
2023-03-04T22:46:26.525Z,33.90
2023-03-04T22:48:28.154Z,33.90
2023-03-04T22:50:29.805Z,34.00
2023-03-04T22:52:31.874Z,34.00
2023-03-04T22:54:33.558Z,34.00
2023-03-04T22:56:36.482Z,34.00
2023-03-04T22:58:38.603Z,34.00
2023-03-04T23:00:40.270Z,34.00
2023-03-04T23:02:42.416Z,34.00
2023-03-04T23:04:44.032Z,34.00
2023-03-04T23:06:45.674Z,34.00
2023-03-04T23:08:49.524Z,34.10
2023-03-04T23:10:51.140Z,34.10
2023-03-04T23:12:52.854Z,34.10
2023-03-04T23:14:54.621Z,34.10
2023-03-04T23:16:56.356Z,34.10
2023-03-04T23:18:59.577Z,34.80
2023-03-04T23:21:08.896Z,34.10
2023-03-04T23:23:11.709Z,34.10
2023-03-04T23:25:14.656Z,34.10
2023-03-04T23:27:16.429Z,34.10
2023-03-04T23:29:18.206Z,34.20
2023-03-04T23:31:20.046Z,34.10
2023-03-04T23:33:21.955Z,34.20
2023-03-04T23:35:23.672Z,34.20
2023-03-04T23:37:25.615Z,34.10
2023-03-04T23:39:27.267Z,34.20
2023-03-04T23:41:30.724Z,34.20
2023-03-04T23:43:32.960Z,34.20
2023-03-04T23:45:34.657Z,34.20
2023-03-04T23:47:36.326Z,34.20
2023-03-04T23:49:38.404Z,34.20
2023-03-04T23:51:40.924Z,34.30
2023-03-04T23:53:43.063Z,34.30
2023-03-04T23:55:44.705Z,34.20
2023-03-04T23:57:47.149Z,34.20
2023-03-04T23:59:48.754Z,34.30
